Isle of Islay, United Kingdom
Current Conditions -  °F | °C
As of 10:20 PM on Monday 26 Jan 2015 (Local Time) from EGPI Reporting Station
Scattered Clouds Scattered Clouds  
Wind Chill: 38°   Ceiling: Unl
Heat Index: 45°   Visibility: 6mi
Dew Point: 41°   Wind: 13mph
Humidity: 87%   Direction: 280°W
Pressure: 30.3"   Gusts: NA
Location:  55.63°N, 6.2°W
Report Text: EGPI 262220Z AUTO 28011KT 9999 FEW019/// SCT028/// 07/05 Q1026 RERA
Loading
Personal Weather Stations






























Interactive Weather Map New forecast layout! Learn more

10-Day Weather Forecast

Advertisements
Track Severe Weather on mobile